Time;durP1;ratioP1;P1;durP2;ratioP2;P2;SDS_P1;SDS_P2;PMS_P1;PMS_P2;Temp;Humidity;BMP_temperature;BMP_pressure;BME280_temperature;BME280_humidity;BME280_pressure;Samples;Min_cycle;Max_cycle;Signal;HPM_P1;HPM_P2
2023/05/25 00:03:02;;;;;;;0.43;0.35;;;;;;;17.54;99.12;102555.63;10471917;28;20049;-79
2023/05/25 00:08:04;;;;;;;0.10;0.10;;;;;;;18.38;92.53;102548.78;10445235;28;20055;-79
2023/05/25 00:13:06;;;;;;;0.15;0.10;;;;;;;18.11;93.25;102558.66;10462698;28;20037;-79
2023/05/25 00:18:07;;;;;;;0.03;0.03;;;;;;;17.05;100.00;102556.19;10437063;28;20056;-79
2023/05/25 00:23:10;;;;;;;0.10;0.10;;;;;;;16.91;100.00;102562.75;10438732;28;20052;-79
2023/05/25 00:28:12;;;;;;;1.05;0.85;;;;;;;16.60;100.00;102556.72;10464586;28;20032;-79
2023/05/25 00:33:14;;;;;;;0.20;0.10;;;;;;;17.94;94.51;102550.44;10451917;28;20167;-79
2023/05/25 00:38:17;;;;;;;0.30;0.20;;;;;;;16.65;100.00;102562.91;10448535;28;20084;-79
2023/05/25 00:43:19;;;;;;;0.05;0.05;;;;;;;16.46;100.00;102564.13;10456838;28;20682;-79
2023/05/25 00:48:21;;;;;;;0.30;0.30;;;;;;;16.46;100.00;102558.91;10432884;28;20041;-79
2023/05/25 00:53:23;;;;;;;0.00;0.00;;;;;;;16.29;100.00;102563.66;10449002;28;20052;-79
2023/05/25 00:58:28;;;;;;;0.10;0.10;;;;;;;16.14;100.00;102559.78;10446114;28;20118;-79
2023/05/25 01:03:36;;;;;;;0.15;0.10;;;;;;;17.23;97.63;102550.56;10416481;28;20071;-79
2023/05/25 01:08:43;;;;;;;0.00;0.00;;;;;;;16.65;99.63;102549.91;10430592;28;20049;-79
2023/05/25 01:13:44;;;;;;;0.00;0.00;;;;;;;16.20;100.00;102551.28;10466700;28;20041;-79
2023/05/25 01:18:46;;;;;;;0.25;0.13;;;;;;;16.02;100.00;102554.22;10450169;28;20133;-79
2023/05/25 01:24:04;;;;;;;0.35;0.10;;;;;;;15.69;100.00;102566.22;10435624;28;20120;-79
2023/05/25 01:29:07;;;;;;;0.20;0.20;;;;;;;15.57;100.00;102570.13;10460140;28;20051;-79
2023/05/25 01:34:09;;;;;;;1.27;0.32;;;;;;;15.47;100.00;102577.59;10468491;28;20041;-79
2023/05/25 01:39:15;;;;;;;0.38;0.30;;;;;;;15.46;100.00;102573.25;10432883;28;20052;-79
2023/05/25 01:44:17;;;;;;;0.30;0.25;;;;;;;15.29;100.00;102577.03;10448555;28;20041;-79
2023/05/25 01:49:30;;;;;;;0.00;0.00;;;;;;;15.48;100.00;102584.56;10450383;28;20575;-79
2023/05/25 01:54:39;;;;;;;0.10;0.10;;;;;;;15.81;100.00;102596.91;10464005;28;20120;-79
2023/05/25 01:59:42;;;;;;;1.33;0.03;;;;;;;15.99;100.00;102593.09;10460232;28;20071;-79
2023/05/25 02:04:45;;;;;;;0.20;0.20;;;;;;;15.78;100.00;102594.19;10448847;28;20142;-79
2023/05/25 02:09:47;;;;;;;0.15;0.15;;;;;;;16.72;96.63;102593.47;10430741;28;20083;-79
2023/05/25 02:14:49;;;;;;;0.17;0.17;;;;;;;16.99;95.12;102592.50;10467444;28;20029;-79
2023/05/25 02:19:51;;;;;;;0.20;0.08;;;;;;;17.26;92.06;102594.03;10452949;28;20053;-79
2023/05/25 02:24:53;;;;;;;0.08;0.05;;;;;;;16.70;93.06;102582.16;10445069;28;20073;-79
2023/05/25 02:29:56;;;;;;;0.10;0.10;;;;;;;16.44;98.08;102590.09;10473009;28;20415;-79
2023/05/25 02:34:59;;;;;;;0.30;0.13;;;;;;;16.02;99.46;102598.41;10455606;28;20057;-79
2023/05/25 02:40:02;;;;;;;0.10;0.10;;;;;;;15.03;100.00;102600.38;10465669;28;20495;-79
2023/05/25 02:45:09;;;;;;;3.08;0.88;;;;;;;16.36;97.36;102588.13;10460095;28;20051;-79
2023/05/25 02:50:12;;;;;;;0.10;0.10;;;;;;;15.62;99.57;102597.13;10439760;28;20084;-79
2023/05/25 02:55:18;;;;;;;0.30;0.28;;;;;;;16.39;95.13;102594.31;10465889;28;20045;-79
2023/05/25 03:00:20;;;;;;;1.08;0.50;;;;;;;15.60;98.08;102604.00;10450240;28;20052;-79
2023/05/25 03:05:21;;;;;;;0.20;0.20;;;;;;;14.94;100.00;102605.22;10435060;28;20140;-79
2023/05/25 03:10:23;;;;;;;0.65;0.47;;;;;;;14.94;100.00;102608.72;10434677;28;20156;-79
2023/05/25 03:15:25;;;;;;;0.20;0.13;;;;;;;16.46;97.13;102608.34;10452335;28;20068;-79
2023/05/25 03:20:27;;;;;;;0.10;0.10;;;;;;;15.92;99.72;102618.06;10454759;28;20045;-79
2023/05/25 03:25:29;;;;;;;0.22;0.20;;;;;;;15.63;100.00;102632.66;10455195;28;20048;-79
2023/05/25 03:30:32;;;;;;;0.20;0.13;;;;;;;15.18;100.00;102629.47;10438367;28;20040;-79
2023/05/25 03:35:34;;;;;;;0.30;0.25;;;;;;;15.41;100.00;102634.56;10451198;28;20071;-79
2023/05/25 03:40:36;;;;;;;0.10;0.10;;;;;;;16.18;99.36;102639.66;10433296;28;20083;-79
2023/05/25 03:45:38;;;;;;;0.40;0.30;;;;;;;16.33;96.83;102635.75;10466106;28;20518;-78
2023/05/25 03:50:39;;;;;;;0.30;0.30;;;;;;;16.18;97.68;102643.94;10436734;28;20045;-79
2023/05/25 03:55:41;;;;;;;0.13;0.13;;;;;;;16.32;99.25;102639.19;10453343;28;20534;-79
2023/05/25 04:00:43;;;;;;;0.17;0.13;;;;;;;16.48;98.63;102649.22;10442405;28;20048;-78
2023/05/25 04:05:45;;;;;;;0.15;0.15;;;;;;;17.08;99.77;102631.81;10441719;28;20124;-79
2023/05/25 04:10:47;;;;;;;0.00;0.00;;;;;;;16.83;100.00;102637.16;10447409;28;20049;-79
2023/05/25 04:16:24;;;;;;;0.00;0.00;;;;;;;16.97;100.00;102635.81;10432115;28;20400;-79
2023/05/25 04:21:57;;;;;;;;;;;;;;;;;;;;;
2023/05/25 04:27:04;;;;;;;0.25;0.10;;;;;;;16.20;100.00;102644.00;10433097;28;20064;-78
2023/05/25 04:38:25;;;;;;;0.80;0.35;;;;;;;16.22;100.00;102652.72;10435852;28;20410;-78
2023/05/25 04:43:38;;;;;;;0.20;0.20;;;;;;;16.80;100.00;102648.34;10440447;28;20099;-79
2023/05/25 04:48:57;;;;;;;0.05;0.05;;;;;;;16.50;100.00;102662.25;10434265;28;20048;-79
2023/05/25 04:53:59;;;;;;;0.28;0.22;;;;;;;16.31;100.00;102664.28;10446811;28;20063;-79
2023/05/25 04:59:03;;;;;;;0.45;0.40;;;;;;;17.59;100.00;102661.75;10458137;28;20532;-79
2023/05/25 05:04:06;;;;;;;2.08;0.50;;;;;;;17.10;100.00;102666.56;10436549;28;20045;-79
2023/05/25 05:09:08;;;;;;;3.30;1.25;;;;;;;16.94;100.00;102674.81;10431465;28;20099;-79
2023/05/25 05:14:10;;;;;;;0.13;0.10;;;;;;;17.60;100.00;102680.88;10438565;28;20450;-79
2023/05/25 05:19:13;;;;;;;0.00;0.00;;;;;;;17.79;100.00;102678.72;10432677;28;20052;-79
2023/05/25 05:24:15;;;;;;;0.20;0.20;;;;;;;17.68;100.00;102681.97;10445697;28;20052;-79
2023/05/25 05:29:18;;;;;;;1.02;0.40;;;;;;;17.54;100.00;102685.91;10430287;28;20040;-79
2023/05/25 05:34:21;;;;;;;0.45;0.28;;;;;;;17.88;100.00;102686.75;10460134;28;20037;-80
2023/05/25 05:39:22;;;;;;;1.65;0.38;;;;;;;17.21;100.00;102702.44;10446043;28;20291;-79
2023/05/25 05:44:24;;;;;;;0.30;0.20;;;;;;;17.96;100.00;102710.44;10442096;28;20447;-79
2023/05/25 05:49:30;;;;;;;0.88;0.50;;;;;;;18.49;100.00;102718.63;10456196;28;20048;-80
2023/05/25 05:54:34;;;;;;;0.60;0.30;;;;;;;18.90;100.00;102712.50;10469171;28;20044;-79
2023/05/25 05:59:41;;;;;;;0.28;0.28;;;;;;;18.60;100.00;102708.41;10445257;28;20053;-79
2023/05/25 06:04:42;;;;;;;0.25;0.17;;;;;;;18.54;100.00;102716.13;10444757;28;20057;-79
2023/05/25 06:09:45;;;;;;;0.73;0.40;;;;;;;18.77;100.00;102724.44;10438253;28;20129;-80
2023/05/25 06:14:49;;;;;;;0.40;0.20;;;;;;;19.22;100.00;102712.28;10453943;28;20103;-79
2023/05/25 06:19:58;;;;;;;0.75;0.50;;;;;;;19.28;100.00;102720.25;10452907;28;20108;-78
2023/05/25 06:25:05;;;;;;;0.30;0.30;;;;;;;19.37;100.00;102719.53;10453036;28;20037;-79
2023/05/25 06:30:07;;;;;;;0.30;0.20;;;;;;;20.80;100.00;102724.34;10451317;28;20072;-79
2023/05/25 06:35:16;;;;;;;0.50;0.40;;;;;;;19.89;100.00;102737.91;10435218;28;20411;-79
2023/05/25 06:40:18;;;;;;;0.20;0.20;;;;;;;19.96;100.00;102738.84;10434837;28;20446;-79
2023/05/25 06:45:26;;;;;;;0.57;0.32;;;;;;;20.54;100.00;102737.97;10437953;28;20041;-79
2023/05/25 06:50:28;;;;;;;0.00;0.00;;;;;;;19.91;100.00;102751.00;10441533;28;20404;-79
2023/05/25 06:55:29;;;;;;;0.30;0.20;;;;;;;19.58;100.00;102755.63;10447050;28;20471;-79
2023/05/25 07:00:31;;;;;;;1.65;0.65;;;;;;;19.94;100.00;102751.91;10441696;28;20054;-79
2023/05/25 07:05:33;;;;;;;0.40;0.38;;;;;;;21.80;100.00;102743.75;10438065;28;20045;-78
2023/05/25 07:10:34;;;;;;;0.95;0.70;;;;;;;21.28;100.00;102745.84;10453324;28;20434;-79
2023/05/25 07:15:36;;;;;;;0.88;0.65;;;;;;;21.33;100.00;102746.81;10440257;28;20399;-79
2023/05/25 07:20:42;;;;;;;1.25;0.45;;;;;;;21.17;100.00;102751.88;10467060;28;20041;-79
2023/05/25 07:25:44;;;;;;;0.65;0.30;;;;;;;21.99;97.73;102743.94;10462241;28;20072;-78
2023/05/25 07:30:47;;;;;;;0.35;0.20;;;;;;;21.68;98.91;102754.16;10448835;28;20107;-79
2023/05/25 07:35:50;;;;;;;0.95;0.73;;;;;;;21.33;100.00;102752.06;10435495;28;20056;-80
2023/05/25 07:40:51;;;;;;;0.20;0.20;;;;;;;22.89;94.41;102760.22;10451620;28;20214;-79
2023/05/25 07:45:55;;;;;;;2.00;0.25;;;;;;;20.66;100.00;102768.69;10449430;28;20094;-81
2023/05/25 07:50:56;;;;;;;0.70;0.70;;;;;;;22.26;95.99;102763.34;10474310;28;20063;-80
2023/05/25 07:55:58;;;;;;;0.15;0.15;;;;;;;22.96;95.61;102773.38;10452464;28;20060;-79
2023/05/25 08:00:59;;;;;;;0.70;0.40;;;;;;;21.64;93.92;102779.47;10456862;28;20057;-80
2023/05/25 08:06:01;;;;;;;1.75;1.13;;;;;;;21.09;95.66;102790.22;10462507;28;20051;-80
2023/05/25 08:11:03;;;;;;;0.80;0.52;;;;;;;22.18;95.44;102793.03;10435150;28;20088;-80
2023/05/25 08:16:05;;;;;;;0.10;0.10;;;;;;;25.70;90.55;102774.66;10454142;28;20040;-79
2023/05/25 08:21:06;;;;;;;0.55;0.38;;;;;;;23.21;90.53;102796.25;10459393;28;20041;-78
2023/05/25 08:26:10;;;;;;;0.22;0.22;;;;;;;23.03;92.07;102795.31;10467905;28;20048;-78
2023/05/25 08:31:32;;;;;;;0.22;0.17;;;;;;;25.09;85.33;102787.38;10436140;28;20561;-79
2023/05/25 08:36:35;;;;;;;0.20;0.20;;;;;;;24.40;86.68;102783.19;10456205;28;20052;-79
2023/05/25 08:41:41;;;;;;;1.95;0.82;;;;;;;23.22;87.66;102795.41;10470368;28;20044;-79
2023/05/25 08:46:46;;;;;;;1.20;0.38;;;;;;;22.14;92.08;102795.63;10448416;28;20056;-79
2023/05/25 08:51:50;;;;;;;2.92;0.75;;;;;;;21.54;93.05;102809.06;10435664;28;20373;-81
2023/05/25 08:56:58;;;;;;;1.08;0.57;;;;;;;23.17;89.23;102803.25;10450439;28;20403;-80
2023/05/25 09:02:10;;;;;;;0.32;0.20;;;;;;;21.83;89.86;102812.00;10471939;28;20059;-80
2023/05/25 09:07:12;;;;;;;0.70;0.40;;;;;;;21.66;92.56;102808.34;10460687;28;20147;-80
2023/05/25 09:12:14;;;;;;;0.47;0.20;;;;;;;21.96;90.35;102804.25;10430970;28;20545;-79
2023/05/25 09:17:17;;;;;;;3.90;1.30;;;;;;;22.41;87.87;102805.50;10465248;28;20037;-79
2023/05/25 09:22:19;;;;;;;0.22;0.20;;;;;;;22.35;87.51;102805.44;10472479;28;20048;-79
2023/05/25 09:27:22;;;;;;;2.22;1.13;;;;;;;23.68;83.48;102799.88;10450452;28;20045;-79
2023/05/25 09:32:24;;;;;;;0.85;0.52;;;;;;;22.02;87.50;102802.56;10452412;28;20131;-80
2023/05/25 09:37:26;;;;;;;0.88;0.45;;;;;;;22.62;86.54;102815.25;10437310;28;20037;-78
2023/05/25 09:42:28;;;;;;;0.20;0.20;;;;;;;24.39;83.31;102811.28;10447963;28;20136;-79
2023/05/25 09:47:30;;;;;;;0.22;0.22;;;;;;;25.64;79.34;102802.00;10436149;28;20380;-79
2023/05/25 09:52:32;;;;;;;0.17;0.17;;;;;;;25.92;80.26;102791.22;10457441;28;20052;-79
2023/05/25 09:57:35;;;;;;;0.55;0.40;;;;;;;26.43;76.01;102792.50;10466597;28;20059;-79
2023/05/25 10:02:36;;;;;;;2.83;0.63;;;;;;;23.43;83.66;102813.84;10429597;28;20486;-79
2023/05/25 10:07:40;;;;;;;0.98;0.40;;;;;;;24.12;79.77;102806.06;10449620;28;20045;-80
2023/05/25 10:12:43;;;;;;;1.05;0.30;;;;;;;23.93;81.92;102806.06;10432029;28;20041;-80
2023/05/25 10:17:55;;;;;;;1.00;0.35;;;;;;;25.97;73.65;102797.31;10447878;28;20056;-79
2023/05/25 10:23:07;;;;;;;0.98;0.52;;;;;;;26.62;72.22;102797.59;10464169;28;20045;-79
2023/05/25 10:28:20;;;;;;;0.30;0.10;;;;;;;26.29;70.59;102804.09;10430644;28;20045;-80
2023/05/25 10:33:23;;;;;;;0.50;0.47;;;;;;;23.55;74.89;102805.13;10484758;28;20048;-81
2023/05/25 10:38:25;;;;;;;0.30;0.17;;;;;;;24.29;76.00;102804.28;10443820;28;20041;-80
2023/05/25 10:43:27;;;;;;;0.08;0.08;;;;;;;23.85;73.78;102813.91;10454206;28;20055;-79
2023/05/25 10:48:43;;;;;;;0.15;0.15;;;;;;;25.54;72.15;102802.94;10471835;28;20040;-79
2023/05/25 10:53:57;;;;;;;0.30;0.30;;;;;;;24.28;72.38;102807.81;10440816;28;20049;-82
2023/05/25 10:58:59;;;;;;;0.75;0.55;;;;;;;23.97;77.81;102805.19;10462995;28;20140;-80
2023/05/25 11:04:09;;;;;;;0.00;0.00;;;;;;;24.05;76.08;102803.44;10455256;28;20124;-80
2023/05/25 11:09:25;;;;;;;0.65;0.40;;;;;;;23.99;72.82;102798.16;10452527;28;20399;-79
2023/05/25 11:14:29;;;;;;;0.13;0.10;;;;;;;24.94;69.82;102790.94;10446998;28;20063;-80
2023/05/25 11:20:01;;;;;;;0.00;0.00;;;;;;;24.26;69.96;102799.00;10442375;28;20484;-80
2023/05/25 11:25:48;;;;;;;0.17;0.17;;;;;;;25.74;69.25;102783.44;10443277;28;20048;-79
2023/05/25 11:30:50;;;;;;;0.20;0.00;;;;;;;26.78;69.54;102783.31;10431222;28;20144;-80
2023/05/25 11:35:54;;;;;;;0.43;0.13;;;;;;;26.66;71.17;102784.31;10458695;28;20045;-79
2023/05/25 11:40:55;;;;;;;3.72;0.45;;;;;;;24.01;71.13;102785.91;10454821;28;20044;-79
2023/05/25 11:45:57;;;;;;;0.25;0.25;;;;;;;24.49;74.13;102783.19;10453774;28;20124;-80
2023/05/25 11:51:05;;;;;;;0.57;0.28;;;;;;;24.39;70.18;102784.06;10458144;28;20143;-80
2023/05/25 11:56:07;;;;;;;0.10;0.10;;;;;;;23.99;67.70;102774.47;10435745;28;20049;-79
2023/05/25 12:01:20;;;;;;;0.32;0.10;;;;;;;24.12;68.75;102770.09;10442224;28;20123;-80
2023/05/25 12:06:27;;;;;;;3.83;0.73;;;;;;;24.91;67.00;102767.22;10459281;28;20049;-80
2023/05/25 12:11:37;;;;;;;9.25;0.28;;;;;;;25.85;66.19;102754.31;10451367;28;20106;-80
2023/05/25 12:16:41;;;;;;;0.43;0.25;;;;;;;26.62;62.60;102744.75;10468326;28;20393;-79
2023/05/25 12:21:44;;;;;;;0.17;0.17;;;;;;;24.57;66.11;102751.53;10443989;28;20049;-79
2023/05/25 12:26:50;;;;;;;0.20;0.10;;;;;;;24.14;68.25;102755.13;10428142;28;20043;-79
2023/05/25 12:31:52;;;;;;;0.40;0.40;;;;;;;24.81;65.07;102750.56;10441345;28;20056;-79
2023/05/25 12:36:55;;;;;;;0.50;0.30;;;;;;;27.04;59.90;102742.44;10442442;28;20484;-79
2023/05/25 12:41:58;;;;;;;0.43;0.43;;;;;;;26.32;60.82;102742.44;10446294;28;20403;-80
2023/05/25 12:47:22;;;;;;;2.95;0.47;;;;;;;25.66;64.76;102741.28;10453803;28;20033;-80
2023/05/25 12:52:38;;;;;;;0.10;0.10;;;;;;;25.54;65.01;102750.19;10462655;28;20052;-79
2023/05/25 12:57:40;;;;;;;0.80;0.68;;;;;;;27.79;66.84;102732.44;10463192;28;20049;-80
2023/05/25 13:02:44;;;;;;;0.20;0.10;;;;;;;25.03;62.62;102746.09;10456760;28;20037;-80
2023/05/25 13:07:48;;;;;;;0.77;0.20;;;;;;;26.98;57.85;102727.53;10456191;28;20148;-79
2023/05/25 13:12:52;;;;;;;2.80;0.32;;;;;;;25.37;62.95;102744.09;10449984;28;20072;-79
2023/05/25 13:17:56;;;;;;;0.50;0.32;;;;;;;25.74;64.96;102738.56;10451985;28;20057;-79
2023/05/25 13:22:59;;;;;;;1.33;0.45;;;;;;;24.71;63.10;102741.84;10439146;28;20053;-81
2023/05/25 13:28:01;;;;;;;0.00;0.00;;;;;;;24.35;65.70;102743.69;10463342;28;20077;-81
2023/05/25 13:33:03;;;;;;;0.40;0.35;;;;;;;25.39;66.42;102729.19;10437282;28;20044;-80
2023/05/25 13:38:05;;;;;;;0.52;0.30;;;;;;;24.55;65.40;102737.47;10447422;28;20091;-81
2023/05/25 13:43:07;;;;;;;0.10;0.10;;;;;;;24.05;66.47;102726.22;10439486;28;20084;-80
2023/05/25 13:48:09;;;;;;;0.30;0.20;;;;;;;25.41;64.00;102727.41;10450168;28;20565;-80
2023/05/25 13:53:12;;;;;;;0.40;0.40;;;;;;;26.54;60.41;102721.03;10443028;28;20086;-80
2023/05/25 13:58:13;;;;;;;0.10;0.00;;;;;;;24.97;61.24;102721.50;10445307;28;20127;-80
2023/05/25 14:03:15;;;;;;;0.35;0.35;;;;;;;26.85;61.30;102715.38;10447873;28;20060;-79
2023/05/25 14:08:17;;;;;;;0.40;0.40;;;;;;;25.23;62.45;102710.78;10443295;28;20045;-80
2023/05/25 14:13:18;;;;;;;0.10;0.10;;;;;;;25.10;64.47;102720.53;10472295;28;20056;-79
2023/05/25 14:18:20;;;;;;;0.50;0.25;;;;;;;26.33;60.54;102706.31;10446404;28;20063;-79
2023/05/25 14:23:22;;;;;;;0.95;0.22;;;;;;;26.46;58.92;102702.66;10441928;28;20048;-80
2023/05/25 14:28:24;;;;;;;0.70;0.35;;;;;;;25.52;61.53;102696.53;10461689;28;20036;-80
2023/05/25 14:33:26;;;;;;;0.85;0.52;;;;;;;26.60;61.91;102695.41;10450060;28;20056;-79
2023/05/25 14:38:29;;;;;;;0.35;0.32;;;;;;;25.83;57.44;102692.75;10455629;28;20404;-80
2023/05/25 14:43:30;;;;;;;0.03;0.00;;;;;;;26.86;57.98;102686.25;10458041;28;20525;-79
2023/05/25 14:48:32;;;;;;;0.22;0.20;;;;;;;26.32;59.69;102686.09;10471921;28;20476;-81
2023/05/25 14:53:34;;;;;;;1.02;0.93;;;;;;;26.24;60.12;102687.06;10442085;28;20049;-80
2023/05/25 14:58:35;;;;;;;0.32;0.30;;;;;;;25.66;59.08;102688.50;10456058;28;20060;-80
2023/05/25 15:03:37;;;;;;;0.00;0.00;;;;;;;26.70;57.79;102684.69;10457351;28;20041;-80
2023/05/25 15:08:39;;;;;;;1.75;0.20;;;;;;;25.83;57.50;102680.41;10448258;28;20064;-81
2023/05/25 15:13:41;;;;;;;0.28;0.20;;;;;;;24.92;56.77;102689.88;10456225;28;20485;-80
2023/05/25 15:18:43;;;;;;;0.98;0.40;;;;;;;25.95;59.60;102684.69;10453319;28;20045;-79
2023/05/25 15:23:45;;;;;;;0.47;0.47;;;;;;;25.46;54.56;102686.03;10460014;28;20052;-80
2023/05/25 15:28:47;;;;;;;1.52;0.65;;;;;;;26.54;55.94;102690.22;10457171;28;20041;-79
2023/05/25 15:33:49;;;;;;;0.10;0.10;;;;;;;25.70;56.39;102679.66;10474640;28;20140;-79
2023/05/25 15:38:58;;;;;;;0.20;0.20;;;;;;;25.54;55.33;102681.56;10452302;28;20083;-81
2023/05/25 15:44:00;;;;;;;0.20;0.20;;;;;;;25.44;52.77;102683.41;10444770;28;20049;-79
2023/05/25 15:49:02;;;;;;;0.40;0.32;;;;;;;25.42;53.68;102679.91;10439995;28;20056;-80
2023/05/25 15:54:04;;;;;;;0.00;0.00;;;;;;;25.47;53.56;102682.50;10433299;28;20049;-80
2023/05/25 15:59:05;;;;;;;1.40;0.25;;;;;;;25.83;53.64;102680.41;10454758;28;20059;-79
2023/05/25 16:04:07;;;;;;;0.03;0.03;;;;;;;25.80;53.23;102673.41;10461544;28;20055;-79
2023/05/25 16:09:09;;;;;;;3.30;1.17;;;;;;;25.44;52.46;102677.25;10456097;28;20078;-81
2023/05/25 16:14:11;;;;;;;0.38;0.20;;;;;;;26.03;53.33;102671.38;10457954;28;20052;-79
2023/05/25 16:19:13;;;;;;;0.20;0.00;;;;;;;25.28;52.00;102672.06;10431962;28;20520;-80
2023/05/25 16:24:14;;;;;;;0.45;0.30;;;;;;;24.86;50.70;102679.38;10445969;28;20049;-81
2023/05/25 16:29:16;;;;;;;0.82;0.35;;;;;;;24.69;52.98;102680.34;10450960;28;20049;-79
2023/05/25 16:34:18;;;;;;;1.08;0.47;;;;;;;25.17;55.28;102671.28;10459641;28;20037;-80
2023/05/25 16:39:20;;;;;;;1.13;0.43;;;;;;;25.29;54.87;102673.81;10459019;28;20044;-79
2023/05/25 16:44:22;;;;;;;0.85;0.60;;;;;;;25.00;55.91;102671.41;10463244;28;20060;-80
2023/05/25 16:49:24;;;;;;;0.22;0.22;;;;;;;24.83;56.27;102674.16;10466586;28;20040;-80
2023/05/25 16:54:25;;;;;;;0.70;0.68;;;;;;;24.81;57.17;102676.78;10435449;28;20053;-81
2023/05/25 16:59:27;;;;;;;0.22;0.10;;;;;;;24.89;57.33;102684.66;10443023;28;20048;-79
2023/05/25 17:04:29;;;;;;;0.30;0.30;;;;;;;24.43;55.84;102684.84;10434724;28;20072;-80
2023/05/25 17:09:30;;;;;;;0.65;0.47;;;;;;;25.06;58.78;102683.69;10467523;28;20040;-80
2023/05/25 17:14:32;;;;;;;0.35;0.35;;;;;;;24.53;58.38;102686.56;10455453;28;20037;-80
2023/05/25 17:19:33;;;;;;;0.65;0.55;;;;;;;23.80;56.11;102681.47;10471214;28;20047;-81
2023/05/25 17:24:35;;;;;;;0.85;0.80;;;;;;;24.02;57.61;102687.59;10444601;28;20484;-80
2023/05/25 17:29:37;;;;;;;0.10;0.10;;;;;;;24.32;56.42;102683.09;10454122;28;20068;-80
2023/05/25 17:34:38;;;;;;;0.73;0.47;;;;;;;24.63;58.12;102682.97;10457423;28;20450;-80
2023/05/25 17:39:41;;;;;;;6.07;0.60;;;;;;;23.42;58.97;102683.22;10460474;28;20044;-80
2023/05/25 17:44:43;;;;;;;1.55;0.52;;;;;;;23.24;59.08;102686.72;10449522;28;20049;-81
2023/05/25 17:49:44;;;;;;;0.35;0.30;;;;;;;23.97;59.63;102697.25;10432129;28;20064;-80
2023/05/25 17:54:46;;;;;;;2.35;1.13;;;;;;;23.16;60.16;102696.31;10456695;28;20056;-81
2023/05/25 17:59:48;;;;;;;2.03;0.95;;;;;;;23.25;61.59;102692.88;10441279;28;20481;-80
2023/05/25 18:04:49;;;;;;;2.20;1.38;;;;;;;23.09;62.32;102695.44;10470952;28;20044;-80
2023/05/25 18:09:51;;;;;;;2.95;0.68;;;;;;;22.50;62.77;102705.75;10480860;28;20059;-81
2023/05/25 18:14:52;;;;;;;1.30;0.43;;;;;;;23.17;63.77;102702.47;10456373;28;20049;-80
2023/05/25 18:19:54;;;;;;;0.43;0.15;;;;;;;22.41;65.18;102705.72;10443695;28;20048;-81
2023/05/25 18:24:56;;;;;;;3.55;1.25;;;;;;;21.77;65.83;102712.28;10463023;28;20052;-81
2023/05/25 18:29:57;;;;;;;0.40;0.40;;;;;;;21.97;66.26;102717.66;10450224;28;20132;-80
2023/05/25 18:34:59;;;;;;;0.05;0.05;;;;;;;21.87;66.84;102719.34;10458275;28;20053;-80
2023/05/25 18:40:02;;;;;;;2.85;0.50;;;;;;;21.62;67.21;102722.63;10457293;28;20052;-80
2023/05/25 18:45:05;;;;;;;0.85;0.50;;;;;;;21.36;67.49;102731.09;10447048;28;20037;-81
2023/05/25 18:50:06;;;;;;;0.57;0.30;;;;;;;21.21;69.57;102734.44;10438759;28;20415;-81
2023/05/25 18:55:08;;;;;;;0.10;0.10;;;;;;;21.47;68.72;102745.19;10445159;28;20045;-81
2023/05/25 19:00:11;;;;;;;1.85;0.68;;;;;;;21.33;70.72;102736.31;10464687;28;20137;-80
2023/05/25 19:05:14;;;;;;;0.85;0.30;;;;;;;21.20;71.70;102744.03;10465483;28;20040;-80
2023/05/25 19:10:15;;;;;;;0.25;0.20;;;;;;;20.74;72.75;102752.25;10443327;28;20491;-80
2023/05/25 19:15:17;;;;;;;1.50;0.77;;;;;;;20.98;73.86;102760.38;10440968;28;20064;-80
2023/05/25 19:20:18;;;;;;;0.10;0.10;;;;;;;20.50;75.31;102758.00;10454506;28;20041;-80
2023/05/25 19:25:20;;;;;;;0.90;0.10;;;;;;;20.03;76.40;102759.03;10448913;28;20137;-81
2023/05/25 19:30:22;;;;;;;0.30;0.30;;;;;;;19.93;77.01;102771.09;10465779;28;20392;-80
2023/05/25 19:35:23;;;;;;;0.10;0.10;;;;;;;19.98;78.07;102776.38;10461315;28;20412;-80
2023/05/25 19:40:25;;;;;;;3.40;0.35;;;;;;;19.56;79.98;102796.53;10464215;28;20134;-80
2023/05/25 19:45:27;;;;;;;0.30;0.08;;;;;;;19.89;79.50;102779.75;10459375;28;20053;-79
2023/05/25 19:50:29;;;;;;;0.70;0.43;;;;;;;19.48;80.68;102800.75;10455021;28;20055;-79
2023/05/25 19:55:32;;;;;;;0.20;0.10;;;;;;;19.21;82.17;102799.38;10447611;28;20048;-80
2023/05/25 20:00:34;;;;;;;0.63;0.50;;;;;;;19.32;81.71;102804.81;10454209;28;20052;-80
2023/05/25 20:05:35;;;;;;;1.30;0.68;;;;;;;19.15;82.90;102810.56;10444722;28;20052;-80
2023/05/25 20:10:38;;;;;;;0.95;0.10;;;;;;;19.06;84.42;102812.13;10460247;28;20044;-80
2023/05/25 20:15:40;;;;;;;0.30;0.30;;;;;;;18.76;85.77;102816.69;10452854;28;20049;-80
2023/05/25 20:20:41;;;;;;;3.00;0.70;;;;;;;19.00;84.69;102812.84;10437262;28;20051;-80
2023/05/25 20:25:43;;;;;;;0.65;0.43;;;;;;;18.22;87.38;102818.91;10463947;28;20514;-81
2023/05/25 20:30:45;;;;;;;4.45;0.45;;;;;;;19.17;85.41;102823.69;10441272;28;20436;-80
2023/05/25 20:35:47;;;;;;;8.52;0.35;;;;;;;18.44;88.29;102821.13;10447628;28;20516;-80
2023/05/25 20:40:49;;;;;;;1.52;0.28;;;;;;;18.15;89.85;102831.75;10474278;28;20453;-80
2023/05/25 20:45:50;;;;;;;0.10;0.10;;;;;;;17.91;92.39;102832.84;10437724;28;20053;-79
2023/05/25 20:50:52;;;;;;;1.48;1.13;;;;;;;17.96;91.89;102836.50;10446502;28;20058;-79
2023/05/25 20:55:55;;;;;;;0.73;0.47;;;;;;;17.88;93.79;102838.88;10432774;28;20049;-80
2023/05/25 21:00:57;;;;;;;0.47;0.30;;;;;;;17.47;95.04;102841.25;10465593;28;20072;-80
2023/05/25 21:05:59;;;;;;;0.28;0.15;;;;;;;17.67;94.52;102841.78;10449473;28;20392;-79
2023/05/25 21:11:01;;;;;;;1.85;0.20;;;;;;;17.43;96.37;102845.47;10461737;28;20060;-79
2023/05/25 21:16:02;;;;;;;0.00;0.00;;;;;;;17.23;96.71;102849.25;10438194;28;20045;-80
2023/05/25 21:21:04;;;;;;;0.35;0.30;;;;;;;16.98;98.47;102866.72;10433229;28;20044;-80
2023/05/25 21:26:09;;;;;;;3.10;0.08;;;;;;;17.53;97.09;102858.78;10448747;28;20044;-79
2023/05/25 21:31:11;;;;;;;0.13;0.08;;;;;;;16.95;98.26;102866.63;10441353;28;20508;-80
2023/05/25 21:36:13;;;;;;;0.45;0.32;;;;;;;17.19;98.28;102869.09;10432922;28;20053;-78
2023/05/25 21:41:15;;;;;;;0.00;0.00;;;;;;;16.31;100.00;102871.50;10433518;28;20044;-79
2023/05/25 21:46:16;;;;;;;0.32;0.10;;;;;;;16.71;100.00;102865.00;10451185;28;20088;-79
2023/05/25 21:51:18;;;;;;;0.10;0.10;;;;;;;16.67;100.00;102870.06;10441262;28;20395;-80
2023/05/25 21:56:20;;;;;;;4.57;0.73;;;;;;;16.42;100.00;102872.72;10435343;28;20055;-80
2023/05/25 22:01:22;;;;;;;0.63;0.30;;;;;;;16.69;100.00;102870.97;10434095;28;20132;-79
2023/05/25 22:06:24;;;;;;;0.73;0.70;;;;;;;16.83;100.00;102881.81;10459264;28;20094;-79
2023/05/25 22:11:26;;;;;;;2.75;1.80;;;;;;;16.58;100.00;102878.44;10437555;28;20047;-79
2023/05/25 22:16:27;;;;;;;0.70;0.57;;;;;;;16.81;100.00;102880.06;10417737;28;20060;-79
2023/05/25 22:21:29;;;;;;;0.25;0.08;;;;;;;16.10;100.00;102888.13;10462007;28;20041;-81
2023/05/25 22:26:31;;;;;;;0.68;0.65;;;;;;;15.83;100.00;102886.31;10433121;28;20047;-80
2023/05/25 22:31:32;;;;;;;0.00;0.00;;;;;;;16.01;100.00;102890.41;10465472;28;20484;-80
2023/05/25 22:36:35;;;;;;;3.63;0.75;;;;;;;16.16;100.00;102888.34;10455884;28;20136;-79
2023/05/25 22:41:37;;;;;;;0.32;0.32;;;;;;;16.15;100.00;102891.78;10445184;28;20045;-79
2023/05/25 22:46:39;;;;;;;2.90;0.75;;;;;;;16.53;100.00;102883.47;10456975;28;20052;-79
2023/05/25 22:51:40;;;;;;;2.83;0.57;;;;;;;16.34;100.00;102898.50;10457523;28;20045;-79
2023/05/25 22:56:42;;;;;;;0.65;0.40;;;;;;;16.27;100.00;102898.25;10456062;28;20068;-80
2023/05/25 23:01:44;;;;;;;0.43;0.38;;;;;;;16.46;100.00;102892.81;10467463;28;20052;-79
2023/05/25 23:06:45;;;;;;;0.00;0.00;;;;;;;16.36;100.00;102893.34;10452999;28;20124;-79
2023/05/25 23:11:47;;;;;;;0.00;0.00;;;;;;;16.14;100.00;102895.19;10446396;28;20048;-79
2023/05/25 23:16:49;;;;;;;0.55;0.20;;;;;;;16.21;100.00;102900.59;10456333;28;20044;-79
2023/05/25 23:21:50;;;;;;;0.93;0.57;;;;;;;16.08;100.00;102900.19;10469101;28;20045;-79